Time;durP1;ratioP1;P1;durP2;ratioP2;P2;SDS_P1;SDS_P2;PMS_P1;PMS_P2;Temp;Humidity;BMP_temperature;BMP_pressure;BME280_temperature;BME280_humidity;BME280_pressure;Samples;Min_cycle;Max_cycle;Signal;HPM_P1;HPM_P2
2023/05/31 00:03:25;;;;;;;;;;;;;;;12.56;90.93;102873.31;20906004;28;19927;-61
2023/05/31 00:13:47;;;;;;;;;;;;;;;12.47;91.36;102873.38;20917300;28;19927;-61
2023/05/31 00:24:08;;;;;;;;;;;;;;;12.49;91.02;102866.44;20922994;28;19935;-61
2023/05/31 00:34:30;;;;;;;;;;;;;;;12.42;91.27;102862.16;20913652;28;19927;-61
2023/05/31 00:44:51;;;;;;;;;;;;;;;12.32;91.00;102844.91;20937832;28;19924;-61
2023/05/31 00:55:13;;;;;;;;;;;;;;;12.30;90.92;102849.25;20929786;28;19925;-61
2023/05/31 01:05:35;;;;;;;;;;;;;;;12.23;91.34;102859.66;20939507;28;19924;-62
2023/05/31 01:16:20;;;;;;;;;;;;;;;12.14;91.35;102857.97;20940381;28;19924;-61
2023/05/31 01:26:49;;;;;;;;;;;;;;;12.13;90.74;102851.91;20934416;28;19920;-61
2023/05/31 01:37:11;;;;;;;;;;;;;;;12.04;90.84;102845.88;20942034;28;20628;-61
2023/05/31 01:47:33;;;;;;;;;;;;;;;11.96;90.76;102858.88;20929349;28;20310;-61
2023/05/31 01:57:56;;;;;;;;;;;;;;;11.85;90.23;102854.56;20944311;28;19947;-61
2023/05/31 02:08:18;;;;;;;;;;;;;;;11.75;89.33;102852.88;20935873;28;19973;-60
2023/05/31 02:18:39;;;;;;;;;;;;;;;11.61;90.13;102857.22;20930952;28;20034;-61
2023/05/31 02:29:01;;;;;;;;;;;;;;;11.57;89.98;102852.91;20936051;28;20402;-61
2023/05/31 02:39:22;;;;;;;;;;;;;;;11.52;91.05;102857.22;20943846;28;19928;-61
2023/05/31 02:49:44;;;;;;;;;;;;;;;11.44;90.64;102857.25;20931074;28;19927;-61
2023/05/31 03:00:10;;;;;;;;;;;;;;;11.41;90.66;102859.81;20929162;28;19931;-60
2023/05/31 03:10:32;;;;;;;;;;;;;;;11.39;91.31;102843.38;20926521;28;20379;-61
2023/05/31 03:20:53;;;;;;;;;;;;;;;11.30;90.24;102847.75;20931518;28;19920;-61
2023/05/31 03:31:15;;;;;;;;;;;;;;;11.31;91.09;102852.06;20912734;28;19920;-61
2023/05/31 03:41:37;;;;;;;;;;;;;;;11.35;91.17;102848.59;20933548;28;19927;-61
2023/05/31 03:51:58;;;;;;;;;;;;;;;11.42;90.94;102847.72;20931530;28;20384;-61
2023/05/31 04:02:20;;;;;;;;;;;;;;;11.52;92.22;102849.44;20935902;28;19920;-61
2023/05/31 04:12:41;;;;;;;;;;;;;;;11.69;93.64;102848.56;20923090;28;19998;-61
2023/05/31 04:23:03;;;;;;;;;;;;;;;11.89;94.82;102854.59;20926818;28;19927;-61
2023/05/31 04:33:29;;;;;;;;;;;;;;;12.08;94.94;102848.47;20923542;28;19921;-60
2023/05/31 04:43:52;;;;;;;;;;;;;;;12.30;95.12;102849.25;20925305;28;20024;-60
2023/05/31 04:54:13;;;;;;;;;;;;;;;12.55;94.60;102855.16;20904960;28;19928;-61
2023/05/31 05:04:35;;;;;;;;;;;;;;;12.76;93.91;102840.31;20933156;28;19920;-61
2023/05/31 05:14:56;;;;;;;;;;;;;;;13.01;93.67;102843.59;20922267;28;19931;-61
2023/05/31 05:25:18;;;;;;;;;;;;;;;13.22;93.53;102850.41;20923237;28;19932;-61
2023/05/31 05:35:39;;;;;;;;;;;;;;;13.43;93.28;102847.59;20918922;28;19920;-61
2023/05/31 05:46:00;;;;;;;;;;;;;;;13.65;93.09;102851.72;20932833;28;19931;-61
2023/05/31 05:56:22;;;;;;;;;;;;;;;13.93;93.59;102841.03;20937432;28;19964;-61
2023/05/31 06:06:43;;;;;;;;;;;;;;;14.22;92.90;102845.88;20944280;28;19928;-61
2023/05/31 06:17:07;;;;;;;;;;;;;;;14.47;91.76;102839.47;20927612;28;19924;-61
2023/05/31 06:27:28;;;;;;;;;;;;;;;14.76;90.07;102834.72;20914301;28;19928;-61
2023/05/31 06:37:51;;;;;;;;;;;;;;;15.10;88.78;102830.69;20932935;28;20403;-61
2023/05/31 06:48:12;;;;;;;;;;;;;;;15.35;87.21;102835.47;20937099;28;20344;-61
2023/05/31 06:58:34;;;;;;;;;;;;;;;15.66;84.49;102826.25;20922165;28;20302;-61
2023/05/31 07:08:55;;;;;;;;;;;;;;;15.99;81.56;102820.34;20929250;28;19924;-61
2023/05/31 07:19:17;;;;;;;;;;;;;;;16.33;81.12;102805.72;20935711;28;19928;-61
2023/05/31 07:29:38;;;;;;;;;;;;;;;16.56;77.60;102802.59;20929558;28;19943;-61
2023/05/31 07:40:00;;;;;;;;;;;;;;;16.92;77.26;102794.72;20932236;28;19924;-62
2023/05/31 07:50:21;;;;;;;;;;;;;;;17.02;73.72;102798.84;20880677;28;19924;-61
2023/05/31 08:00:43;;;;;;;;;;;;;;;17.23;73.72;102792.22;20939071;28;19967;-62
2023/05/31 08:11:04;;;;;;;;;;;;;;;17.80;70.71;102795.06;20930000;28;19924;-62
2023/05/31 08:21:26;;;;;;;;;;;;;;;18.12;70.90;102775.75;20927219;28;19921;-61
2023/05/31 08:31:48;;;;;;;;;;;;;;;18.56;70.32;102772.66;20931833;28;19925;-61
2023/05/31 08:42:14;;;;;;;;;;;;;;;18.86;67.00;102767.25;20924891;28;20011;-61
2023/05/31 08:52:36;;;;;;;;;;;;;;;19.00;67.76;102770.31;20921063;28;20668;-63
2023/05/31 09:02:59;;;;;;;;;;;;;;;19.20;68.42;102761.72;20941733;28;19921;-63
2023/05/31 09:13:21;;;;;;;;;;;;;;;19.44;68.19;102745.16;20911606;28;20343;-62
2023/05/31 09:23:53;;;;;;;;;;;;;;;19.73;66.19;102749.31;20926955;28;19920;-62
2023/05/31 09:34:29;;;;;;;;;;;;;;;19.91;65.05;102748.63;20938597;28;20299;-63
2023/05/31 09:44:50;;;;;;;;;;;;;;;20.25;64.70;102740.34;20938244;28;20343;-63
2023/05/31 09:55:12;;;;;;;;;;;;;;;20.00;66.30;102741.25;20949032;28;20034;-63
2023/05/31 10:05:34;;;;;;;;;;;;;;;20.03;68.12;102740.28;20943391;28;20372;-63
2023/05/31 10:16:05;;;;;;;;;;;;;;;20.20;68.17;102732.63;20937219;28;20453;-63
2023/05/31 10:26:35;;;;;;;;;;;;;;;20.18;68.77;102712.56;20928032;28;19920;-62
2023/05/31 10:36:57;;;;;;;;;;;;;;;20.38;69.16;102723.97;20934201;28;19924;-62
2023/05/31 10:47:20;;;;;;;;;;;;;;;20.46;69.63;102708.75;20932205;28;19927;-63
2023/05/31 10:57:42;;;;;;;;;;;;;;;20.64;68.34;102702.72;20926579;28;20460;-62
2023/05/31 11:08:12;;;;;;;;;;;;;;;20.85;67.27;102693.94;20929749;28;19925;-63
2023/05/31 11:18:40;;;;;;;;;;;;;;;20.95;66.93;102691.75;20940634;28;19920;-63
2023/05/31 11:29:02;;;;;;;;;;;;;;;21.11;64.24;102697.25;20936595;28;19931;-61
2023/05/31 11:39:25;;;;;;;;;;;;;;;21.02;62.37;102694.09;20916916;28;19920;-61
2023/05/31 11:49:47;;;;;;;;;;;;;;;21.27;62.41;102677.22;20943181;28;19928;-62
2023/05/31 12:00:10;;;;;;;;;;;;;;;21.06;62.13;102678.19;20935736;28;20299;-61
2023/05/31 12:10:33;;;;;;;;;;;;;;;21.14;61.36;102678.69;20938340;28;20376;-61
2023/05/31 12:20:54;;;;;;;;;;;;;;;20.35;61.03;102674.16;20929783;28;20012;-61
2023/05/31 12:31:20;;;;;;;;;;;;;;;19.93;57.53;102670.59;20923785;28;19947;-61
2023/05/31 12:41:46;;;;;;;;;;;;;;;19.89;59.87;102664.59;20934328;28;19967;-61
2023/05/31 12:52:15;;;;;;;;;;;;;;;19.61;58.91;102663.09;20929508;28;19931;-60
2023/05/31 13:02:37;;;;;;;;;;;;;;;19.66;59.81;102641.00;20940383;28;19920;-61
2023/05/31 13:12:58;;;;;;;;;;;;;;;19.64;60.12;102631.44;20940888;28;19956;-61
2023/05/31 13:23:20;;;;;;;;;;;;;;;19.67;58.56;102620.81;20930947;28;19928;-61
2023/05/31 13:33:41;;;;;;;;;;;;;;;19.74;60.15;102617.06;20954054;28;20287;-61
2023/05/31 13:44:03;;;;;;;;;;;;;;;19.75;58.64;102603.84;20938529;28;19924;-61
2023/05/31 13:54:24;;;;;;;;;;;;;;;19.68;59.91;102602.38;20937476;28;20306;-60
2023/05/31 14:04:46;;;;;;;;;;;;;;;19.74;59.25;102598.66;20939730;28;19925;-60
2023/05/31 14:15:10;;;;;;;;;;;;;;;19.65;59.82;102593.78;20924019;28;19924;-61
2023/05/31 14:25:32;;;;;;;;;;;;;;;19.59;61.20;102591.38;20936681;28;19928;-62
2023/05/31 14:35:53;;;;;;;;;;;;;;;19.55;61.59;102579.28;20936197;28;19924;-60
2023/05/31 14:46:15;;;;;;;;;;;;;;;19.49;64.21;102558.50;20937739;28;19935;-61
2023/05/31 14:56:37;;;;;;;;;;;;;;;19.40;65.23;102554.47;20945487;28;19959;-61
2023/05/31 15:06:59;;;;;;;;;;;;;;;19.36;66.20;102546.75;20938470;28;19921;-61
2023/05/31 15:17:20;;;;;;;;;;;;;;;19.31;67.51;102549.56;20930561;28;20530;-62
2023/05/31 15:27:42;;;;;;;;;;;;;;;19.18;68.38;102553.53;20927533;28;19924;-61
2023/05/31 15:38:03;;;;;;;;;;;;;;;19.04;68.11;102551.41;20909188;28;19927;-61
2023/05/31 15:48:25;;;;;;;;;;;;;;;18.90;68.94;102550.22;20923726;28;19929;-62
2023/05/31 15:58:46;;;;;;;;;;;;;;;18.79;69.27;102550.63;20920860;28;19927;-62
2023/05/31 16:09:08;;;;;;;;;;;;;;;18.92;69.11;102544.03;20931494;28;19925;-62
2023/05/31 16:19:30;;;;;;;;;;;;;;;19.48;67.49;102530.53;20922913;28;19936;-61
2023/05/31 16:29:51;;;;;;;;;;;;;;;19.67;66.61;102531.50;20924574;28;20352;-61
2023/05/31 16:40:12;;;;;;;;;;;;;;;19.44;66.02;102518.44;20913233;28;19932;-61
2023/05/31 16:50:34;;;;;;;;;;;;;;;19.37;66.16;102520.47;20913392;28;20004;-61
2023/05/31 17:00:56;;;;;;;;;;;;;;;19.03;66.42;102525.25;20928205;28;20280;-62
2023/05/31 17:11:17;;;;;;;;;;;;;;;18.96;66.41;102516.75;20931148;28;20390;-61
2023/05/31 17:21:39;;;;;;;;;;;;;;;18.77;67.17;102505.22;20918250;28;19921;-61
2023/05/31 17:32:00;;;;;;;;;;;;;;;18.46;67.00;102509.88;20922960;28;20022;-62
2023/05/31 17:42:24;;;;;;;;;;;;;;;18.45;66.25;102497.69;20926478;28;20046;-61
2023/05/31 17:52:45;;;;;;;;;;;;;;;17.95;67.53;102514.25;20904038;28;20444;-61
2023/05/31 18:03:07;;;;;;;;;;;;;;;17.27;68.15;102510.38;20940781;28;20384;-61
2023/05/31 18:13:28;;;;;;;;;;;;;;;16.99;69.26;102500.72;20925593;28;19920;-61
2023/05/31 18:23:50;;;;;;;;;;;;;;;16.42;69.75;102502.34;20932771;28;19924;-60
2023/05/31 18:34:11;;;;;;;;;;;;;;;16.16;70.95;102512.63;20933309;28;19927;-59
2023/05/31 18:44:33;;;;;;;;;;;;;;;15.92;71.81;102505.41;20920343;28;19935;-60
2023/05/31 18:54:54;;;;;;;;;;;;;;;15.66;72.94;102507.81;20923642;28;19943;-60
2023/05/31 19:05:15;;;;;;;;;;;;;;;15.38;72.13;102517.16;20913821;28;19921;-60
2023/05/31 19:15:37;;;;;;;;;;;;;;;15.43;73.01;102517.94;20913927;28;19933;-61
2023/05/31 19:25:58;;;;;;;;;;;;;;;15.43;73.17;102515.31;20928975;28;19920;-62
2023/05/31 19:36:20;;;;;;;;;;;;;;;15.09;73.00;102533.41;20929377;28;20587;-61
2023/05/31 19:46:42;;;;;;;;;;;;;;;14.85;74.17;102518.31;20926679;28;19967;-61
2023/05/31 19:57:05;;;;;;;;;;;;;;;14.85;75.04;102520.94;20934746;28;19944;-61
2023/05/31 20:07:26;;;;;;;;;;;;;;;14.80;75.47;102515.78;20922266;28;19932;-60
2023/05/31 20:17:48;;;;;;;;;;;;;;;14.81;75.61;102533.16;20932195;28;19921;-60
2023/05/31 20:28:09;;;;;;;;;;;;;;;14.72;75.40;102522.88;20921820;28;19932;-61
2023/05/31 20:38:32;;;;;;;;;;;;;;;14.63;76.36;102520.47;20908250;28;19935;-61
2023/05/31 20:48:53;;;;;;;;;;;;;;;14.65;77.19;102523.91;20909484;28;20367;-61
2023/05/31 20:59:15;;;;;;;;;;;;;;;14.51;76.33;102520.72;20921729;28;19924;-61
2023/05/31 21:09:36;;;;;;;;;;;;;;;14.39;76.70;102514.88;20914973;28;19924;-61
2023/05/31 21:19:58;;;;;;;;;;;;;;;14.14;76.66;102517.91;20920261;28;19921;-61
2023/05/31 21:30:20;;;;;;;;;;;;;;;14.15;77.17;102508.34;20935835;28;19928;-61
2023/05/31 21:40:41;;;;;;;;;;;;;;;14.16;76.88;102512.66;20909013;28;20343;-61
2023/05/31 21:51:03;;;;;;;;;;;;;;;14.18;77.10;102515.22;20924673;28;19933;-61
2023/05/31 22:01:24;;;;;;;;;;;;;;;14.13;76.38;102504.91;20924235;28;19925;-61
2023/05/31 22:11:46;;;;;;;;;;;;;;;14.14;77.11;102504.88;20923226;28;19927;-62
2023/05/31 22:22:07;;;;;;;;;;;;;;;14.15;76.91;102505.75;20925395;28;19927;-61
2023/05/31 22:32:29;;;;;;;;;;;;;;;14.00;77.41;102512.06;20942105;28;19928;-62
2023/05/31 22:42:51;;;;;;;;;;;;;;;13.99;77.63;102499.09;20932938;28;19920;-61
2023/05/31 22:53:12;;;;;;;;;;;;;;;13.86;76.95;102505.38;20930693;28;19931;-61
2023/05/31 23:03:34;;;;;;;;;;;;;;;13.83;77.73;102508.00;20920812;28;19929;-62
2023/05/31 23:14:01;;;;;;;;;;;;;;;13.75;77.51;102509.91;20939936;28;19928;-61
2023/05/31 23:24:22;;;;;;;;;;;;;;;13.74;77.77;102500.34;20922768;28;19920;-61
2023/05/31 23:34:43;;;;;;;;;;;;;;;13.67;77.17;102496.16;20931639;28;19924;-61
2023/05/31 23:45:05;;;;;;;;;;;;;;;13.57;77.91;102505.00;20914494;28;19927;-61
2023/05/31 23:55:27;;;;;;;;;;;;;;;13.59;77.97;102490.19;20926481;28;19936;-61
